Time;durP1;ratioP1;P1;durP2;ratioP2;P2;SDS_P1;SDS_P2;PMS_P1;PMS_P2;Temp;Humidity;BMP_temperature;BMP_pressure;BME280_temperature;BME280_humidity;BME280_pressure;Samples;Min_cycle;Max_cycle;Signal;HPM_P1;HPM_P2
2022/07/21 00:02:16;;;;;;;39.40;4.03;;;;;;;25.69;57.14;99432.97;7313819;19;129351;-42
2022/07/21 00:04:42;;;;;;;29.07;3.47;;;;;;;25.67;57.50;99441.03;7314784;19;129461;-43
2022/07/21 00:07:07;;;;;;;29.07;3.27;;;;;;;25.68;57.32;99439.22;7312725;19;129250;-41
2022/07/21 00:09:35;;;;;;;30.97;3.33;;;;;;;25.67;57.87;99432.31;7314692;19;129915;-40
2022/07/21 00:12:01;;;;;;;43.00;4.68;;;;;;;25.65;57.42;99426.41;7314442;19;129655;-39
2022/07/21 00:14:26;;;;;;;21.00;2.88;;;;;;;25.68;57.56;99433.97;7313013;19;129608;-40
2022/07/21 00:16:52;;;;;;;21.70;2.70;;;;;;;25.68;57.61;99439.22;7311460;19;131338;-38
2022/07/21 00:19:17;;;;;;;44.50;4.70;;;;;;;25.67;56.80;99440.19;7313477;19;129178;-42
2022/07/21 00:21:42;;;;;;;33.80;3.80;;;;;;;25.66;57.73;99433.31;7314192;19;128812;-39
2022/07/21 00:24:08;;;;;;;20.17;2.67;;;;;;;25.65;57.62;99443.00;7315306;19;129086;-39
2022/07/21 00:26:33;;;;;;;29.70;3.37;;;;;;;25.65;57.73;99434.31;7312076;19;130913;-42
2022/07/21 00:28:59;;;;;;;33.37;3.27;;;;;;;25.65;57.64;99431.69;7312800;19;129718;-41
2022/07/21 00:31:24;;;;;;;19.20;2.40;;;;;;;25.59;58.93;99421.81;7313782;19;129105;-41
2022/07/21 00:33:51;;;;;;;42.03;4.43;;;;;;;25.64;57.30;99430.84;7313314;19;130024;-39
2022/07/21 00:36:17;;;;;;;27.92;3.13;;;;;;;25.65;57.54;99426.41;7312237;19;130761;-38
2022/07/21 00:38:43;;;;;;;25.38;3.13;;;;;;;25.65;57.43;99421.94;7313720;19;130439;-40
2022/07/21 00:41:08;;;;;;;28.00;3.10;;;;;;;25.66;57.85;99420.16;7313162;19;128827;-43
2022/07/21 00:43:34;;;;;;;31.93;3.57;;;;;;;25.66;56.86;99414.88;7314770;19;129059;-42
2022/07/21 00:45:59;;;;;;;32.37;3.33;;;;;;;25.66;57.22;99412.25;7311879;19;129603;-37
2022/07/21 00:48:25;;;;;;;48.00;5.23;;;;;;;25.65;57.68;99405.34;7312741;19;129565;-40
2022/07/21 00:50:50;;;;;;;28.53;3.30;;;;;;;25.65;57.44;99407.97;7313900;19;130987;-43
2022/07/21 00:53:16;;;;;;;32.93;3.10;;;;;;;25.65;57.61;99406.16;7313514;19;129406;-38
2022/07/21 00:55:46;;;;;;;25.10;2.93;;;;;;;25.59;58.39;99395.47;7313275;19;129057;-39
2022/07/21 00:58:12;;;;;;;52.50;5.38;;;;;;;25.61;57.49;99409.31;7312671;19;130587;-38
2022/07/21 01:00:38;;;;;;;33.75;3.78;;;;;;;25.56;57.48;99403.72;7312880;19;128943;-44
2022/07/21 01:03:03;;;;;;;37.27;4.07;;;;;;;25.66;57.33;99417.50;7310993;19;129262;-43
2022/07/21 01:05:29;;;;;;;25.77;2.80;;;;;;;25.57;58.02;99402.72;7312710;19;129275;-41
2022/07/21 01:07:58;;;;;;;32.87;3.43;;;;;;;25.66;57.67;99420.16;7312873;19;130464;-43
2022/07/21 01:10:24;;;;;;;30.83;3.47;;;;;;;25.64;57.28;99416.84;7313030;19;129669;-39
2022/07/21 01:12:50;;;;;;;27.30;2.83;;;;;;;25.65;57.54;99427.22;7313404;19;129135;-40
2022/07/21 01:15:18;;;;;;;34.43;3.70;;;;;;;25.65;57.96;99431.69;7311895;19;129371;-40
2022/07/21 01:17:44;;;;;;;39.60;3.97;;;;;;;25.58;58.00;99441.25;7311878;19;129707;-38
2022/07/21 01:20:12;;;;;;;31.83;3.33;;;;;;;25.57;57.89;99465.91;7312926;19;128877;-41
2022/07/21 01:22:40;;;;;;;34.75;3.78;;;;;;;25.64;57.87;99495.84;7310315;19;128980;-39
2022/07/21 01:25:06;;;;;;;26.88;2.92;;;;;;;25.64;57.65;99486.16;7308797;19;130673;-40
2022/07/21 01:27:32;;;;;;;17.95;2.45;;;;;;;25.63;57.61;99488.94;7309888;19;131733;-41
2022/07/21 01:29:58;;;;;;;39.83;3.97;;;;;;;25.64;57.29;99485.31;7311275;19;129568;-44
2022/07/21 01:32:23;;;;;;;25.63;2.83;;;;;;;25.65;58.31;99510.66;7313184;19;129962;-36
2022/07/21 01:34:49;;;;;;;34.30;3.57;;;;;;;25.65;57.46;99510.66;7312142;19;129201;-39
2022/07/21 01:37:19;;;;;;;29.57;3.70;;;;;;;25.64;57.89;99507.22;7310570;19;130914;-40
2022/07/21 01:42:31;;;;;;;26.00;3.45;;;;;;;25.66;57.89;99507.03;7309953;19;129069;-41
2022/07/21 01:44:57;;;;;;;28.20;3.10;;;;;;;25.58;58.37;99488.63;7310991;19;130125;-41
2022/07/21 01:47:22;;;;;;;33.37;3.57;;;;;;;25.66;57.43;99499.13;7309280;19;130404;-38
2022/07/21 01:49:48;;;;;;;22.47;2.53;;;;;;;25.67;57.72;99492.88;7312140;19;129326;-38
2022/07/21 01:52:14;;;;;;;37.33;3.83;;;;;;;25.68;57.67;99489.25;7312422;19;130154;-41
2022/07/21 01:54:39;;;;;;;27.23;3.03;;;;;;;25.67;57.83;99493.69;7311270;19;129110;-42
2022/07/21 01:57:04;;;;;;;36.17;3.97;;;;;;;25.67;57.69;99482.34;7310266;19;130396;-40
2022/07/21 01:59:30;;;;;;;28.90;3.23;;;;;;;25.67;57.81;99479.69;7312018;19;129602;-39
2022/07/21 02:01:55;;;;;;;24.20;2.80;;;;;;;25.68;57.41;99484.00;7310228;19;128799;-39
2022/07/21 02:04:21;;;;;;;27.63;3.03;;;;;;;25.68;57.73;99492.69;7312160;19;130276;-39
2022/07/21 02:06:47;;;;;;;26.73;3.17;;;;;;;25.67;57.37;99487.59;7309376;19;129581;-41
2022/07/21 02:09:12;;;;;;;35.70;4.17;;;;;;;25.68;58.04;99499.81;7311118;19;129490;-42
2022/07/21 02:11:38;;;;;;;44.47;4.40;;;;;;;25.66;57.82;99493.88;7310655;19;129329;-38
2022/07/21 02:14:04;;;;;;;37.57;3.47;;;;;;;25.65;57.59;99502.78;7311181;19;129284;-43
2022/07/21 02:16:29;;;;;;;26.00;2.57;;;;;;;25.67;56.77;99503.41;7310364;19;131561;-41
2022/07/21 02:18:55;;;;;;;36.00;3.40;;;;;;;25.69;57.64;99493.53;7310676;19;128834;-39
2022/07/21 02:21:21;;;;;;;33.63;3.28;;;;;;;25.69;56.97;99506.69;7310643;19;130802;-42
2022/07/21 02:23:46;;;;;;;34.57;3.50;;;;;;;25.69;57.35;99509.34;7311926;19;130778;-44
2022/07/21 02:26:12;;;;;;;49.37;4.60;;;;;;;25.69;57.26;99499.63;7309896;19;130477;-37
2022/07/21 02:28:38;;;;;;;26.83;3.10;;;;;;;25.68;57.81;99510.34;7308008;19;128785;-39
2022/07/21 02:31:03;;;;;;;33.13;3.30;;;;;;;25.66;57.70;99509.66;7311225;19;129023;-40
2022/07/21 02:33:29;;;;;;;30.80;3.03;;;;;;;25.62;57.49;99517.06;7311593;19;129506;-42
2022/07/21 02:35:55;;;;;;;45.10;3.97;;;;;;;25.67;57.37;99527.09;7310650;19;129764;-40
2022/07/21 02:38:20;;;;;;;31.67;3.17;;;;;;;25.69;57.16;99533.03;7317909;19;129147;-39
2022/07/21 02:40:46;;;;;;;35.70;3.57;;;;;;;25.70;58.16;99534.69;7315208;19;130492;-42
2022/07/21 02:43:12;;;;;;;36.37;3.63;;;;;;;25.69;57.10;99538.28;7315183;19;129152;-39
2022/07/21 02:45:37;;;;;;;25.17;2.70;;;;;;;25.68;58.10;99536.66;7316716;19;131468;-40
2022/07/21 02:48:07;;;;;;;40.07;4.23;;;;;;;25.69;57.75;99538.28;7316710;19;128877;-44
2022/07/21 02:50:36;;;;;;;37.65;3.67;;;;;;;25.67;58.09;99540.28;7315314;19;129289;-44
2022/07/21 02:53:04;;;;;;;41.65;3.88;;;;;;;25.66;57.70;99538.63;7316775;19;130300;-41
2022/07/21 02:55:30;;;;;;;43.10;4.22;;;;;;;25.68;57.26;99541.94;7316207;19;130472;-38
2022/07/21 02:58:06;;;;;;;22.83;2.67;;;;;;;25.69;59.86;99543.56;7313712;19;129024;-36
2022/07/21 03:00:32;;;;;;;30.55;3.03;;;;;;;25.69;58.37;99538.28;7316912;19;128846;-44
2022/07/21 03:02:57;;;;;;;30.77;3.03;;;;;;;25.70;56.75;99542.59;7315093;19;130307;-37
2022/07/21 03:05:22;;;;;;;18.83;2.53;;;;;;;25.69;57.24;99552.28;7316595;19;130578;-42
2022/07/21 03:07:48;;;;;;;48.30;4.20;;;;;;;25.70;57.26;99555.75;7314591;19;129101;-40
2022/07/21 03:10:14;;;;;;;36.70;3.67;;;;;;;25.69;56.52;99559.38;7314997;19;129123;-37
2022/07/21 03:12:39;;;;;;;27.83;3.00;;;;;;;25.70;57.12;99561.03;7316754;19;130072;-40
2022/07/21 03:15:05;;;;;;;36.50;3.67;;;;;;;25.70;56.72;99563.66;7315571;19;129245;-38
2022/07/21 03:17:30;;;;;;;28.27;3.23;;;;;;;25.72;56.86;99560.84;7314699;19;129107;-39
2022/07/21 03:19:55;;;;;;;42.93;4.33;;;;;;;25.72;56.86;99564.28;7314850;19;129989;-41
2022/07/21 03:22:21;;;;;;;22.17;2.53;;;;;;;25.72;57.33;99569.56;7315088;19;130030;-38
2022/07/21 03:24:46;;;;;;;47.10;4.53;;;;;;;25.71;57.00;99562.66;7316120;19;129677;-42
2022/07/21 03:27:12;;;;;;;27.10;3.10;;;;;;;25.70;56.70;99561.03;7315611;19;129404;-39
2022/07/21 03:29:37;;;;;;;41.50;4.30;;;;;;;25.69;57.48;99572.53;7315672;19;129476;-43
2022/07/21 03:32:02;;;;;;;18.53;2.30;;;;;;;25.70;56.80;99566.28;7316006;19;129345;-39
2022/07/21 03:34:28;;;;;;;31.50;3.10;;;;;;;25.69;57.05;99562.81;7315571;19;130843;-42
2022/07/21 03:36:53;;;;;;;35.37;3.53;;;;;;;25.59;57.14;99554.28;7314080;19;129252;-38
2022/07/21 03:39:18;;;;;;;46.42;4.32;;;;;;;25.68;57.14;99569.06;7315818;19;129105;-42
2022/07/21 03:41:44;;;;;;;33.47;3.43;;;;;;;25.71;57.52;99573.19;7315111;19;130116;-43
2022/07/21 03:44:09;;;;;;;30.97;3.67;;;;;;;25.69;57.08;99575.16;7315885;19;129677;-36
2022/07/21 03:46:35;;;;;;;28.80;3.27;;;;;;;25.69;57.31;99575.16;7314319;19;129249;-41
2022/07/21 03:49:00;;;;;;;35.07;3.57;;;;;;;25.70;57.76;99571.56;7313517;19;129143;-44
2022/07/21 03:51:25;;;;;;;29.83;3.13;;;;;;;25.70;56.90;99575.00;7315666;19;129252;-40
2022/07/21 03:53:51;;;;;;;53.27;4.97;;;;;;;25.70;57.20;99577.63;7315681;19;129857;-43
2022/07/21 03:56:16;;;;;;;25.97;3.03;;;;;;;25.70;57.33;99587.38;7314920;19;129272;-39
2022/07/21 03:58:41;;;;;;;29.27;3.10;;;;;;;25.70;57.74;99587.38;7313922;19;128976;-38
2022/07/21 04:01:07;;;;;;;27.37;3.00;;;;;;;25.63;57.36;99570.56;7314897;19;130145;-42
2022/07/21 04:03:33;;;;;;;28.30;3.00;;;;;;;25.71;57.83;99594.25;7311087;19;130691;-42
2022/07/21 04:05:59;;;;;;;;;;;;;;;25.76;60.01;99602.50;7313400;19;130919;-37
2022/07/21 04:08:25;;;;;;;44.60;4.53;;;;;;;25.69;56.79;99606.75;7311446;19;130382;-38
2022/07/21 04:10:51;;;;;;;76.75;6.55;;;;;;;25.70;57.59;99603.97;7311434;19;130159;-41
2022/07/21 04:13:16;;;;;;;42.87;4.43;;;;;;;25.68;57.09;99602.50;7308222;19;132400;-41
2022/07/21 04:15:42;;;;;;;79.53;7.97;;;;;;;25.72;57.48;99611.69;7304713;19;131040;-42
2022/07/21 04:18:08;;;;;;;53.77;5.40;;;;;;;25.71;57.26;99610.06;7303971;19;130271;-40
2022/07/21 04:20:34;;;;;;;36.47;3.90;;;;;;;25.72;56.65;99606.44;7309871;19;130099;-42
2022/07/21 04:22:59;;;;;;;66.97;6.57;;;;;;;25.73;57.38;99616.00;7307981;19;132214;-39
2022/07/21 04:25:25;;;;;;;78.00;7.70;;;;;;;25.66;57.24;99601.84;7301630;19;129164;-40
2022/07/21 04:27:51;;;;;;;52.30;5.50;;;;;;;25.74;57.46;99615.00;7300072;19;130135;-40
2022/07/21 04:30:21;;;;;;;59.30;5.90;;;;;;;25.75;59.00;99611.34;7298155;19;131348;-39
2022/07/21 04:32:47;;;;;;;67.53;6.90;;;;;;;25.74;57.98;99612.34;7299469;19;130870;-39
2022/07/21 04:35:14;;;;;;;59.30;6.20;;;;;;;25.74;57.40;99617.63;7297787;19;130595;-40
2022/07/21 04:37:39;;;;;;;;;;;;;;;25.81;60.07;99621.25;7302106;19;130310;-39
2022/07/21 04:40:07;;;;;;;52.78;5.82;;;;;;;25.78;57.78;99621.59;7305578;19;130926;-38
2022/07/21 04:42:33;;;;;;;35.78;4.07;;;;;;;25.75;56.87;99635.06;7306655;19;131614;-40
2022/07/21 04:44:58;;;;;;;57.50;5.10;;;;;;;25.75;57.06;99642.16;7310319;19;129104;-38
2022/07/21 04:47:24;;;;;;;19.23;2.97;;;;;;;25.77;56.73;99640.19;7306943;19;129841;-43
2022/07/21 04:49:49;;;;;;;54.07;5.53;;;;;;;25.74;56.19;99636.06;7308555;19;130322;-41
2022/07/21 04:52:15;;;;;;;56.63;6.07;;;;;;;25.75;57.53;99627.16;7301225;19;129551;-38
2022/07/21 04:54:40;;;;;;;49.80;5.80;;;;;;;25.72;57.45;99619.59;7305267;19;129841;-37
2022/07/21 04:57:07;;;;;;;73.07;7.67;;;;;;;25.71;57.46;99620.59;7294482;19;129472;-43
2022/07/21 04:59:33;;;;;;;67.47;7.30;;;;;;;25.64;57.72;99603.81;7292073;19;130689;-40
2022/07/21 05:01:59;;;;;;;;;;;;;;;25.80;59.56;99618.78;7291797;19;130585;-40
2022/07/21 05:04:25;;;;;;;54.00;6.50;;;;;;;25.75;56.96;99627.16;7304664;19;131739;-38
2022/07/21 05:06:50;;;;;;;75.77;7.87;;;;;;;25.66;56.74;99607.09;7291355;19;130482;-38
2022/07/21 05:09:16;;;;;;;55.40;6.20;;;;;;;25.74;57.03;99625.53;7298395;19;130384;-40
2022/07/21 05:11:41;;;;;;;60.30;7.23;;;;;;;25.73;56.88;99618.63;7301596;19;130935;-41
2022/07/21 05:14:07;;;;;;;56.40;6.87;;;;;;;25.75;56.75;99613.19;7292605;19;129495;-39
2022/07/21 05:16:32;;;;;;;57.37;6.37;;;;;;;25.76;57.69;99602.50;7296398;19;131853;-42
2022/07/21 05:18:58;;;;;;;81.03;8.47;;;;;;;25.78;57.15;99604.94;7301279;19;131222;-36
2022/07/21 05:21:23;;;;;;;125.87;11.87;;;;;;;25.77;56.97;99617.28;7294413;19;131155;-40
2022/07/21 05:23:48;;;;;;;42.43;5.30;;;;;;;25.76;57.01;99620.94;7299586;19;130502;-39
2022/07/21 05:26:14;;;;;;;50.43;5.43;;;;;;;25.78;57.79;99626.84;7305222;19;129798;-41
2022/07/21 05:28:40;;;;;;;28.07;4.17;;;;;;;25.75;56.72;99629.78;7302556;19;130271;-41
2022/07/21 05:31:07;;;;;;;40.70;5.43;;;;;;;25.76;57.34;99634.09;7302849;19;130604;-44
2022/07/21 05:33:32;;;;;;;50.75;6.18;;;;;;;25.77;57.00;99640.19;7311284;19;131069;-43
2022/07/21 05:35:58;;;;;;;45.87;5.50;;;;;;;25.77;56.54;99646.25;7299109;19;129420;-37
2022/07/21 05:38:23;;;;;;;43.37;5.17;;;;;;;25.78;57.31;99632.13;7308055;19;129855;-38
2022/07/21 05:40:48;;;;;;;39.10;4.83;;;;;;;25.79;57.55;99628.50;7311314;19;129639;-42
2022/07/21 05:43:14;;;;;;;26.40;4.13;;;;;;;25.77;57.25;99622.56;7300931;19;131003;-42
2022/07/21 05:45:39;;;;;;;49.03;5.80;;;;;;;25.77;57.60;99619.94;7310401;19;129121;-42
2022/07/21 05:48:05;;;;;;;47.10;5.50;;;;;;;25.76;57.33;99628.81;7308755;19;129857;-40
2022/07/21 05:50:30;;;;;;;40.33;4.97;;;;;;;25.77;57.44;99630.47;7309528;19;129989;-39
2022/07/21 05:52:56;;;;;;;38.83;4.73;;;;;;;25.78;56.98;99631.28;7307045;19;130952;-43
2022/07/21 05:55:21;;;;;;;36.77;4.80;;;;;;;25.78;57.59;99628.66;7309212;19;129355;-39
2022/07/21 05:57:46;;;;;;;45.87;5.47;;;;;;;25.78;57.23;99639.19;7306595;19;130103;-42
2022/07/21 06:00:13;;;;;;;27.33;3.97;;;;;;;25.75;57.70;99632.44;7309569;19;130419;-43
2022/07/21 06:02:38;;;;;;;31.03;4.63;;;;;;;25.77;57.10;99625.19;7307970;19;130162;-42
2022/07/21 06:05:05;;;;;;;67.47;7.03;;;;;;;25.77;58.20;99624.38;7308910;19;129012;-41
2022/07/21 06:07:30;;;;;;;27.52;3.78;;;;;;;25.76;57.30;99620.94;7307512;19;130181;-42
2022/07/21 06:09:56;;;;;;;33.53;4.03;;;;;;;25.77;57.15;99624.38;7309364;19;129586;-39
2022/07/21 06:12:21;;;;;;;35.47;4.40;;;;;;;25.74;58.04;99620.25;7314779;19;129322;-41
2022/07/21 06:14:47;;;;;;;35.93;4.50;;;;;;;25.76;57.92;99623.56;7315296;19;128810;-38
2022/07/21 06:17:12;;;;;;;17.97;3.50;;;;;;;25.77;57.56;99625.19;7316554;19;129335;-43
2022/07/21 06:19:37;;;;;;;67.43;6.87;;;;;;;25.77;57.63;99625.19;7316174;19;130121;-40
2022/07/21 06:22:03;;;;;;;29.97;4.30;;;;;;;25.73;57.33;99617.78;7317799;19;128843;-39
2022/07/21 06:24:29;;;;;;;32.73;4.10;;;;;;;25.77;57.78;99613.84;7317464;19;129290;-40
2022/07/21 06:26:55;;;;;;;32.17;4.00;;;;;;;25.77;57.10;99621.75;7315297;19;129209;-38
2022/07/21 06:29:22;;;;;;;33.10;4.50;;;;;;;25.75;57.62;99621.88;7315775;19;131977;-43
2022/07/21 06:31:47;;;;;;;;;;;;;;;25.81;59.79;99631.78;7317702;19;128919;-43
2022/07/21 06:34:12;;;;;;;39.30;5.05;;;;;;;25.77;56.68;99630.47;7316553;19;129077;-39
2022/07/21 06:36:38;;;;;;;24.17;3.90;;;;;;;25.77;57.80;99640.19;7317194;19;130049;-42
2022/07/21 06:39:03;;;;;;;61.73;6.13;;;;;;;25.77;57.44;99638.34;7314891;19;129145;-41
2022/07/21 06:41:28;;;;;;;8.40;2.70;;;;;;;25.75;57.92;99642.97;7316801;19;130142;-43
2022/07/21 06:43:54;;;;;;;45.07;5.20;;;;;;;25.75;57.39;99645.59;7315071;19;129349;-40
2022/07/21 06:46:19;;;;;;;28.83;4.30;;;;;;;25.76;57.42;99644.63;7314902;19;130652;-42
2022/07/21 06:48:44;;;;;;;38.83;4.40;;;;;;;25.76;57.64;99639.34;7317125;19;129272;-41
2022/07/21 06:51:10;;;;;;;31.90;4.70;;;;;;;25.77;57.76;99641.00;7314364;19;129108;-38
2022/07/21 06:53:35;;;;;;;28.97;4.07;;;;;;;25.77;57.20;99629.66;7318251;19;128917;-43
2022/07/21 06:56:01;;;;;;;32.47;4.10;;;;;;;25.76;57.68;99639.34;7314454;19;129666;-38
2022/07/21 06:58:27;;;;;;;40.30;4.80;;;;;;;25.77;57.49;99641.00;7317200;19;130637;-38
2022/07/21 07:00:52;;;;;;;21.55;3.50;;;;;;;25.78;57.71;99641.81;7316834;19;129135;-38
2022/07/21 07:03:20;;;;;;;31.57;4.57;;;;;;;25.76;57.30;99649.06;7315821;19;129320;-38
2022/07/21 07:05:47;;;;;;;34.58;4.22;;;;;;;25.75;58.00;99637.69;7315837;19;130253;-40
2022/07/21 07:08:13;;;;;;;50.15;5.88;;;;;;;25.76;57.92;99628.00;7316733;19;129157;-37
2022/07/21 07:10:42;;;;;;;33.90;4.20;;;;;;;25.75;57.98;99637.69;7317006;19;129421;-44
2022/07/21 07:13:09;;;;;;;29.83;4.13;;;;;;;25.77;57.38;99648.09;7314884;19;129271;-41
2022/07/21 07:15:34;;;;;;;;;;;;;;;25.82;59.39;99637.88;7316292;19;129939;-41
2022/07/21 07:18:00;;;;;;;31.08;4.75;;;;;;;25.76;57.09;99642.00;7316113;19;130911;-39
2022/07/21 07:20:25;;;;;;;34.80;4.33;;;;;;;25.77;57.16;99645.47;7315739;19;129136;-39
2022/07/21 07:22:51;;;;;;;31.83;4.33;;;;;;;25.79;57.35;99648.72;7316003;19;129415;-40
2022/07/21 07:25:17;;;;;;;30.50;4.00;;;;;;;25.77;57.47;99651.53;7315141;19;129834;-40
2022/07/21 07:27:47;;;;;;;24.07;3.40;;;;;;;25.77;57.40;99650.72;7316847;19;130271;-38
2022/07/21 07:30:14;;;;;;;34.17;4.18;;;;;;;25.76;57.36;99643.78;7315954;19;129294;-38
2022/07/21 07:32:40;;;;;;;41.28;5.03;;;;;;;25.76;57.10;99657.78;7315392;19;129108;-41
2022/07/21 07:35:07;;;;;;;19.47;3.67;;;;;;;25.75;57.11;99664.03;7314914;19;129420;-37
2022/07/21 07:37:34;;;;;;;27.00;3.92;;;;;;;25.75;58.15;99664.03;7312918;19;131144;-40
2022/07/21 07:39:59;;;;;;;33.17;4.18;;;;;;;25.73;57.94;99656.28;7315937;19;129493;-39
2022/07/21 07:42:25;;;;;;;15.77;3.13;;;;;;;25.76;56.84;99664.88;7315074;19;129638;-39
2022/07/21 07:44:50;;;;;;;52.50;5.40;;;;;;;25.76;57.44;99668.34;7314456;19;129621;-39
2022/07/21 07:47:15;;;;;;;41.53;4.93;;;;;;;25.76;57.16;99681.50;7314438;19;129789;-37
2022/07/21 07:49:41;;;;;;;30.93;3.87;;;;;;;25.78;57.47;99668.16;7315229;19;128800;-40
2022/07/21 07:52:06;;;;;;;28.13;3.63;;;;;;;25.71;57.88;99657.47;7313960;19;130531;-41
2022/07/21 07:54:31;;;;;;;96.40;8.60;;;;;;;25.78;57.37;99666.38;7313914;19;130091;-40
2022/07/21 07:56:57;;;;;;;56.73;6.07;;;;;;;25.77;57.57;99662.06;7298797;19;134035;-40
2022/07/21 07:59:22;;;;;;;83.57;8.70;;;;;;;25.77;57.60;99669.97;7301650;19;131181;-40
2022/07/21 08:01:48;;;;;;;93.57;9.50;;;;;;;25.72;57.17;99643.31;7308840;19;129524;-41
2022/07/21 08:04:14;;;;;;;58.90;6.00;;;;;;;25.81;56.72;99663.41;7310612;19;130758;-42
2022/07/21 08:06:40;;;;;;;9.40;2.95;;;;;;;25.81;56.96;99658.13;7313960;19;131176;-39
2022/07/21 08:09:06;;;;;;;27.30;3.77;;;;;;;25.78;57.78;99647.94;7314039;19;129334;-42
2022/07/21 08:11:32;;;;;;;27.80;3.87;;;;;;;25.81;56.52;99655.50;7303205;19;129192;-43
2022/07/21 08:13:57;;;;;;;37.87;4.80;;;;;;;25.81;57.76;99647.59;7313852;19;129585;-42
2022/07/21 08:16:23;;;;;;;30.27;4.20;;;;;;;25.83;57.08;99661.44;7311154;19;130298;-40
2022/07/21 08:18:48;;;;;;;57.47;5.90;;;;;;;25.81;56.97;99652.84;7314403;19;129743;-37
2022/07/21 08:21:14;;;;;;;49.90;5.20;;;;;;;25.82;56.70;99665.03;7312779;19;129615;-42
2022/07/21 08:23:39;;;;;;;54.23;5.63;;;;;;;25.82;58.02;99659.75;7311511;19;130152;-43
2022/07/21 08:26:05;;;;;;;38.30;4.67;;;;;;;25.83;57.94;99660.59;7313551;19;129191;-38
2022/07/21 08:28:30;;;;;;;30.80;4.13;;;;;;;25.83;57.32;99656.16;7311661;19;131120;-39
2022/07/21 08:30:55;;;;;;;42.57;5.13;;;;;;;25.74;57.30;99646.59;7315225;19;129134;-40
2022/07/21 08:33:21;;;;;;;29.67;3.97;;;;;;;25.82;57.16;99664.22;7314687;19;129573;-40
2022/07/21 08:35:47;;;;;;;26.83;4.00;;;;;;;25.83;56.83;99661.44;7313110;19;129486;-40
2022/07/21 08:38:12;;;;;;;53.00;5.80;;;;;;;25.82;57.86;99662.41;7313350;19;130052;-41
2022/07/21 08:40:41;;;;;;;27.23;3.70;;;;;;;25.82;57.29;99670.28;7313095;19;129468;-42
2022/07/21 08:43:08;;;;;;;28.45;3.85;;;;;;;25.82;57.21;99672.94;7312383;19;130918;-42
2022/07/21 08:45:35;;;;;;;39.30;4.55;;;;;;;25.73;58.25;99652.88;7311540;19;130150;-43
2022/07/21 08:48:01;;;;;;;63.25;6.90;;;;;;;25.82;57.70;99670.28;7312055;19;128915;-39
2022/07/21 08:50:30;;;;;;;27.10;3.70;;;;;;;25.82;58.01;99669.50;7314859;19;129508;-41
2022/07/21 08:52:55;;;;;;;43.40;5.10;;;;;;;25.83;57.86;99673.75;7312620;19;129759;-42
2022/07/21 08:55:22;;;;;;;32.23;4.13;;;;;;;25.74;57.35;99651.88;7312780;19;129267;-37
2022/07/21 08:57:47;;;;;;;37.63;4.28;;;;;;;25.81;57.36;99679.19;7312442;19;129869;-41
2022/07/21 09:00:13;;;;;;;34.37;4.03;;;;;;;25.82;57.61;99682.66;7312300;19;129770;-42
2022/07/21 09:02:38;;;;;;;23.13;3.33;;;;;;;25.83;57.00;99677.22;7314514;19;130115;-40
2022/07/21 09:05:07;;;;;;;45.73;5.47;;;;;;;25.83;57.08;99682.50;7310656;19;129670;-43
2022/07/21 09:07:54;;;;;;;41.92;4.68;;;;;;;25.83;59.94;99681.66;7311813;19;129145;-41
2022/07/21 09:10:25;;;;;;;37.38;4.45;;;;;;;25.83;59.33;99677.22;7310398;19;129063;-43
2022/07/21 09:12:55;;;;;;;31.10;3.85;;;;;;;25.84;56.88;99688.56;7312593;19;129701;-43
2022/07/21 09:15:23;;;;;;;13.88;2.80;;;;;;;25.84;57.55;99673.59;7312803;19;130629;-35
2022/07/21 09:18:03;;;;;;;39.28;4.47;;;;;;;25.84;59.87;99686.75;7313042;19;129260;-39
2022/07/21 09:20:29;;;;;;;23.27;3.30;;;;;;;25.83;57.29;99686.94;7313591;19;128934;-40
2022/07/21 09:23:13;;;;;;;53.73;6.30;;;;;;;25.83;59.75;99679.88;7310768;19;131971;-38
2022/07/21 09:25:40;;;;;;;32.83;4.20;;;;;;;25.83;57.31;99677.22;7311969;19;132768;-41
2022/07/21 09:28:18;;;;;;;50.63;5.60;;;;;;;25.82;58.58;99686.09;7310220;19;130105;-40
2022/07/21 09:30:57;;;;;;;29.67;3.92;;;;;;;25.82;59.35;99678.19;7312696;19;129297;-41
2022/07/21 09:33:25;;;;;;;52.80;5.53;;;;;;;25.84;58.97;99678.03;7295929;19;131291;-39
2022/07/21 09:36:13;;;;;;;107.57;9.48;;;;;;;25.86;59.45;99676.91;7293022;19;131728;-37
2022/07/21 09:39:00;;;;;;;20.85;3.35;;;;;;;25.88;59.40;99688.09;7309039;19;129284;-41
2022/07/21 09:41:26;;;;;;;26.80;3.75;;;;;;;25.86;57.83;99682.16;7311407;19;128832;-42
2022/07/21 09:43:54;;;;;;;37.53;4.67;;;;;;;25.86;57.54;99692.69;7308515;19;130113;-41
2022/07/21 09:46:28;;;;;;;32.60;4.28;;;;;;;25.87;59.83;99694.34;7306414;19;130614;-39
2022/07/21 09:48:56;;;;;;;36.55;4.25;;;;;;;25.85;57.69;99701.56;7313013;19;129512;-39
2022/07/21 09:51:29;;;;;;;23.55;3.42;;;;;;;25.85;57.90;99695.50;7311804;19;129709;-43
2022/07/21 09:53:56;;;;;;;40.67;4.75;;;;;;;25.85;57.54;99688.41;7312024;19;130507;-39
2022/07/21 09:56:23;;;;;;;40.00;4.90;;;;;;;25.86;57.75;99687.44;7309307;19;130640;-39
2022/07/21 09:58:51;;;;;;;30.73;4.00;;;;;;;25.87;58.10;99678.53;7311281;19;128985;-40
2022/07/21 10:01:17;;;;;;;24.35;3.22;;;;;;;25.86;57.32;99682.16;7312507;19;128843;-42
2022/07/21 10:03:45;;;;;;;35.10;4.20;;;;;;;25.88;57.31;99685.47;7308242;19;129555;-39
2022/07/21 10:06:11;;;;;;;41.85;5.05;;;;;;;25.86;57.37;99682.16;7310829;19;130878;-43
2022/07/21 10:08:38;;;;;;;12.75;2.65;;;;;;;25.87;57.03;99675.91;7312462;19;129120;-38
2022/07/21 10:11:04;;;;;;;37.80;4.32;;;;;;;25.79;56.82;99660.09;7310896;19;129616;-39
2022/07/21 10:13:30;;;;;;;25.63;3.70;;;;;;;25.87;57.78;99667.16;7312836;19;129619;-38
2022/07/21 10:15:56;;;;;;;38.50;4.80;;;;;;;25.87;57.47;99670.63;7309933;19;130395;-42
2022/07/21 10:18:25;;;;;;;37.93;4.47;;;;;;;25.88;58.71;99680.19;7311171;19;129038;-43
2022/07/21 10:20:57;;;;;;;30.58;4.05;;;;;;;25.86;58.97;99666.34;7311339;19;128993;-43
2022/07/21 10:23:35;;;;;;;32.33;4.30;;;;;;;25.86;59.38;99655.81;7309112;19;129447;-41
2022/07/21 10:26:02;;;;;;;33.42;4.38;;;;;;;25.87;57.67;99661.88;7308309;19;129833;-41
2022/07/21 10:28:28;;;;;;;13.75;2.60;;;;;;;25.84;57.57;99663.06;7309073;19;128780;-43
2022/07/21 10:30:59;;;;;;;33.97;4.00;;;;;;;25.85;56.78;99669.16;7311375;19;129120;-44
2022/07/21 10:33:46;;;;;;;31.98;4.03;;;;;;;25.86;59.72;99660.25;7310120;19;129102;-39
2022/07/21 10:36:34;;;;;;;43.30;4.47;;;;;;;25.87;59.95;99677.69;7309771;19;131689;-40
2022/07/21 10:39:09;;;;;;;53.22;4.93;;;;;;;25.85;59.48;99669.97;7309386;19;129302;-41
2022/07/21 10:41:42;;;;;;;26.48;3.47;;;;;;;25.86;59.23;99665.53;7310781;19;129570;-41
2022/07/21 10:44:26;;;;;;;43.33;4.68;;;;;;;25.87;59.93;99668.00;7308276;19;129297;-41
2022/07/21 10:47:12;;;;;;;38.50;4.32;;;;;;;25.87;59.84;99660.09;7308187;19;130467;-41
2022/07/21 10:49:53;;;;;;;29.52;3.85;;;;;;;25.85;58.99;99675.22;7310300;19;129858;-43
2022/07/21 10:52:45;;;;;;;44.15;5.03;;;;;;;25.87;59.82;99683.78;7308928;19;129655;-37
2022/07/21 10:55:10;;;;;;;44.15;4.70;;;;;;;25.86;57.13;99692.69;7309784;19;129387;-38
2022/07/21 10:57:44;;;;;;;22.27;3.43;;;;;;;25.86;59.79;99684.78;7309725;19;131087;-37
2022/07/21 11:00:21;;;;;;;40.88;4.80;;;;;;;25.86;59.15;99692.69;7317586;19;129474;-41
2022/07/21 11:02:48;;;;;;;24.40;3.67;;;;;;;25.86;57.62;99700.59;7317113;19;129686;-40
2022/07/21 11:05:14;;;;;;;37.20;4.45;;;;;;;25.80;56.27;99703.88;7316937;19;129503;-38
2022/07/21 11:08:08;;;;;;;30.70;3.90;;;;;;;25.79;59.88;99707.50;7317753;19;130410;-41
2022/07/21 11:10:36;;;;;;;30.83;3.80;;;;;;;25.80;58.25;99714.41;7318041;19;129179;-42
2022/07/21 11:13:01;;;;;;;37.22;4.03;;;;;;;25.73;58.12;99695.00;7317435;19;128947;-40
2022/07/21 11:15:44;;;;;;;38.53;4.77;;;;;;;25.83;59.65;99697.47;7315290;19;129419;-42
2022/07/21 11:18:10;;;;;;;49.40;5.38;;;;;;;25.77;56.93;99688.41;7316289;19;131232;-38
2022/07/21 11:20:35;;;;;;;16.47;3.00;;;;;;;25.82;57.21;99714.28;7315604;19;129003;-37
2022/07/21 11:23:03;;;;;;;37.80;4.57;;;;;;;25.83;57.74;99718.53;7317368;19;129306;-41